createdAt,value
2017-12-24T00:00:02.988Z,1026.88
2017-12-24T00:05:03.178Z,1026.7
2017-12-24T00:10:02.794Z,1026.62
2017-12-24T00:15:03.463Z,1026.53
2017-12-24T00:20:03.167Z,1026.51
2017-12-24T00:25:03.617Z,1026.34
2017-12-24T00:30:03.267Z,1026.37
2017-12-24T00:35:02.819Z,1026.47
2017-12-24T00:40:03.474Z,1026.55
2017-12-24T00:45:02.965Z,1026.69
2017-12-24T00:50:03.364Z,1026.69
2017-12-24T00:55:02.721Z,1026.64
2017-12-24T01:00:03.143Z,1026.53
2017-12-24T01:05:03.351Z,1026.5
2017-12-24T01:10:02.892Z,1026.33
2017-12-24T01:15:03.282Z,1026.28
2017-12-24T01:20:02.757Z,1026.34
2017-12-24T01:25:03.348Z,1026.17
2017-12-24T01:30:02.947Z,1026.15
2017-12-24T01:35:03.512Z,1026.21
2017-12-24T01:40:03.008Z,1026.25
2017-12-24T01:45:02.683Z,1026.33
2017-12-24T01:50:03.111Z,1026.37
2017-12-24T01:55:03.552Z,1026.36
2017-12-24T02:00:03.043Z,1026.29
2017-12-24T02:05:02.851Z,1026.3
2017-12-24T02:10:03.519Z,1026.33
2017-12-24T02:15:03.329Z,1026.38
2017-12-24T02:20:02.807Z,1026.26
2017-12-24T02:25:03.524Z,1026.29
2017-12-24T02:30:03.110Z,1026.13
2017-12-24T02:35:03.631Z,1026
2017-12-24T02:40:03.343Z,1026.08
2017-12-24T02:45:02.872Z,1026.07
2017-12-24T02:50:03.351Z,1025.88
2017-12-24T02:55:02.911Z,1025.81
2017-12-24T03:00:03.338Z,1025.83
2017-12-24T03:05:02.923Z,1025.78
2017-12-24T03:10:03.648Z,1025.74
2017-12-24T03:15:03.270Z,1025.62
2017-12-24T03:20:02.754Z,1025.57
2017-12-24T03:25:03.136Z,1025.55
2017-12-24T03:35:03.378Z,1025.57
2017-12-24T03:40:02.824Z,1025.54
2017-12-24T03:45:03.185Z,1025.53
2017-12-24T03:50:03.651Z,1025.45
2017-12-24T03:55:03.120Z,1025.29
2017-12-24T04:00:02.762Z,1025.32
2017-12-24T04:05:03.260Z,1025.26
2017-12-24T04:10:02.819Z,1025.25
2017-12-24T04:15:03.380Z,1025.33
2017-12-24T04:20:02.981Z,1025.31
2017-12-24T04:25:03.411Z,1025.32
2017-12-24T04:30:02.934Z,1025.29
2017-12-24T04:35:03.618Z,1025.31
2017-12-24T04:40:03.191Z,1025.28
2017-12-24T04:45:03.665Z,1025.19
2017-12-24T04:50:03.209Z,1025.2
2017-12-24T04:55:03.020Z,1025.2
2017-12-24T05:00:03.407Z,1025.07
2017-12-24T05:05:02.876Z,1025.12
2017-12-24T05:10:03.296Z,1025.15
2017-12-24T05:15:02.858Z,1025.15
2017-12-24T05:20:03.489Z,1025.07
2017-12-24T05:25:02.987Z,1025.04
2017-12-24T05:30:03.433Z,1024.97
2017-12-24T05:35:02.925Z,1024.83
2017-12-24T05:40:03.336Z,1024.84
2017-12-24T05:45:02.841Z,1024.88
2017-12-24T05:50:03.589Z,1024.85
2017-12-24T05:55:03.115Z,1024.77
2017-12-24T06:00:02.815Z,1024.73
2017-12-24T06:05:03.170Z,1024.77
2017-12-24T06:10:03.574Z,1024.79
2017-12-24T06:15:02.964Z,1024.78
2017-12-24T06:20:03.352Z,1024.77
2017-12-24T06:25:02.942Z,1024.87
2017-12-24T06:30:03.464Z,1024.93
2017-12-24T06:35:02.926Z,1024.75
2017-12-24T06:40:03.408Z,1024.84
2017-12-24T06:45:03.001Z,1024.8
2017-12-24T06:50:03.441Z,1024.72
2017-12-24T06:55:02.944Z,1024.62
2017-12-24T07:00:03.358Z,1024.63
2017-12-24T07:05:02.996Z,1024.62
2017-12-24T07:10:03.630Z,1024.54
2017-12-24T07:15:03.017Z,1024.54
2017-12-24T07:20:03.677Z,1024.55
2017-12-24T07:25:03.204Z,1024.55
2017-12-24T07:30:02.834Z,1024.61
2017-12-24T07:35:03.536Z,1024.53
2017-12-24T07:40:03.046Z,1024.54
2017-12-24T07:45:03.581Z,1024.45
2017-12-24T07:50:03.024Z,1024.43
2017-12-24T07:55:03.467Z,1024.34
2017-12-24T08:00:02.995Z,1024.32
2017-12-24T08:05:03.384Z,1024.44
2017-12-24T08:10:03.048Z,1024.27
2017-12-24T08:15:03.479Z,1024.17
2017-12-24T08:20:02.876Z,1024.14
2017-12-24T08:25:03.436Z,1024.23
2017-12-24T08:30:02.884Z,1024.09
2017-12-24T08:35:03.472Z,1024.2
2017-12-24T08:40:03.035Z,1024.03
2017-12-24T08:45:03.571Z,1024.02
2017-12-24T08:50:03.171Z,1023.89
2017-12-24T08:55:03.030Z,1023.99
2017-12-24T09:00:02.744Z,1024.03
2017-12-24T09:05:03.670Z,1024.04
2017-12-24T09:10:03.244Z,1023.92
2017-12-24T09:15:02.763Z,1023.98
2017-12-24T09:20:03.249Z,1024
2017-12-24T09:25:02.863Z,1023.87
2017-12-24T09:30:03.367Z,1023.9
2017-12-24T09:35:02.775Z,1023.87
2017-12-24T09:40:03.220Z,1023.96
2017-12-24T09:45:02.770Z,1023.93
2017-12-24T09:50:03.206Z,1023.93
2017-12-24T09:55:03.724Z,1023.96
2017-12-24T10:00:03.316Z,1023.95
2017-12-24T10:05:02.848Z,1023.85
2017-12-24T10:10:03.390Z,1023.79
2017-12-24T10:15:02.826Z,1023.86
2017-12-24T10:20:03.415Z,1023.82
2017-12-24T10:25:02.902Z,1023.74
2017-12-24T10:30:03.320Z,1023.59
2017-12-24T10:35:03.009Z,1023.56
2017-12-24T10:40:03.508Z,1023.51
2017-12-24T10:45:02.947Z,1023.45
2017-12-24T10:50:03.575Z,1023.49
2017-12-24T10:55:02.992Z,1023.45
2017-12-24T11:00:03.585Z,1023.46
2017-12-24T11:05:03.185Z,1023.35
2017-12-24T11:10:02.726Z,1023.33
2017-12-24T11:15:03.290Z,1023.18
2017-12-24T11:20:02.746Z,1023.15
2017-12-24T11:25:03.449Z,1023.22
2017-12-24T11:30:02.847Z,1023.11
2017-12-24T11:35:03.504Z,1023.1
2017-12-24T11:40:03.110Z,1023.16
2017-12-24T11:45:02.685Z,1023.06
2017-12-24T11:50:03.166Z,1023.04
2017-12-24T11:55:02.693Z,1023.01
2017-12-24T12:00:03.283Z,1023.03
2017-12-24T12:05:02.779Z,1023
2017-12-24T12:10:03.261Z,1022.96
2017-12-24T12:15:02.776Z,1022.81
2017-12-24T12:20:03.267Z,1022.72
2017-12-24T12:25:03.633Z,1022.76
2017-12-24T12:30:03.205Z,1022.69
2017-12-24T12:35:02.755Z,1022.57
2017-12-24T12:40:03.392Z,1022.51
2017-12-24T12:45:02.756Z,1022.45
2017-12-24T12:50:03.186Z,1022.35
2017-12-24T12:55:03.645Z,1022.36
2017-12-24T13:00:03.277Z,1022.43
2017-12-24T13:05:02.923Z,1022.21
2017-12-24T13:10:03.481Z,1022.07
2017-12-24T13:15:03.166Z,1022.2
2017-12-24T13:20:03.657Z,1022.22
2017-12-24T13:25:03.261Z,1022.24
2017-12-24T13:30:02.802Z,1022.06
2017-12-24T13:35:03.242Z,1022.13
2017-12-24T13:40:02.755Z,1021.97
2017-12-24T13:45:03.201Z,1021.8
2017-12-24T13:50:02.862Z,1021.92
2017-12-24T13:55:03.428Z,1021.89
2017-12-24T14:00:02.858Z,1021.84
2017-12-24T14:05:03.508Z,1021.94
2017-12-24T14:10:03.091Z,1021.8
2017-12-24T14:15:03.596Z,1021.71
2017-12-24T14:20:03.026Z,1021.63
2017-12-24T14:25:03.521Z,1021.64
2017-12-24T14:30:02.925Z,1021.68
2017-12-24T14:35:03.330Z,1021.62
2017-12-24T14:40:02.876Z,1021.69
2017-12-24T14:45:03.331Z,1021.62
2017-12-24T14:50:02.875Z,1021.69
2017-12-24T14:55:03.308Z,1021.62
2017-12-24T15:00:02.856Z,1021.57
2017-12-24T15:05:03.397Z,1021.46
2017-12-24T15:10:02.945Z,1021.46
2017-12-24T15:15:03.372Z,1021.51
2017-12-24T15:20:02.891Z,1021.48
2017-12-24T15:25:03.430Z,1021.43
2017-12-24T15:30:02.890Z,1021.49
2017-12-24T15:35:03.352Z,1021.46
2017-12-24T15:40:02.933Z,1021.37
2017-12-24T15:45:03.494Z,1021.36
2017-12-24T15:50:03.239Z,1021.31
2017-12-24T15:55:02.780Z,1021.22
2017-12-24T16:00:03.436Z,1021.22
2017-12-24T16:05:02.851Z,1021.29
2017-12-24T16:10:03.340Z,1021.18
2017-12-24T16:15:02.956Z,1021.2
2017-12-24T16:20:03.508Z,1021.16
2017-12-24T16:25:03.088Z,1021.19
2017-12-24T16:30:03.488Z,1021.1
2017-12-24T16:35:03.117Z,1021.07
2017-12-24T16:40:03.550Z,1021.1
2017-12-24T16:45:03.053Z,1020.96
2017-12-24T16:50:03.671Z,1021
2017-12-24T16:55:03.208Z,1021.03
2017-12-24T17:00:02.679Z,1020.93
2017-12-24T17:05:03.104Z,1021.08
2017-12-24T17:10:03.546Z,1021.15
2017-12-24T17:15:03.013Z,1021.03
2017-12-24T17:20:03.585Z,1020.88
2017-12-24T17:25:02.982Z,1020.98
2017-12-24T17:30:03.674Z,1020.97
2017-12-24T17:35:03.387Z,1021
2017-12-24T17:40:02.996Z,1021.09
2017-12-24T17:45:03.397Z,1020.93
2017-12-24T17:50:02.931Z,1021.1
2017-12-24T17:55:03.442Z,1021.06
2017-12-24T18:00:02.876Z,1021
2017-12-24T18:05:03.480Z,1020.94
2017-12-24T18:10:02.934Z,1020.85
2017-12-24T18:15:03.517Z,1020.85
2017-12-24T18:20:02.899Z,1020.9
2017-12-24T18:25:03.438Z,1020.65
2017-12-24T18:30:03.041Z,1020.82
2017-12-24T18:35:03.520Z,1020.66
2017-12-24T18:40:02.948Z,1020.82
2017-12-24T18:45:03.504Z,1020.62
2017-12-24T18:50:03.012Z,1020.67
2017-12-24T18:55:03.475Z,1020.56
2017-12-24T19:00:03.010Z,1020.52
2017-12-24T19:05:03.480Z,1020.44
2017-12-24T19:10:02.983Z,1020.71
2017-12-24T19:15:03.607Z,1020.64
2017-12-24T19:20:03.059Z,1020.62
2017-12-24T19:25:03.553Z,1020.47
2017-12-24T19:30:02.879Z,1020.46
2017-12-24T19:35:03.199Z,1020.51
2017-12-24T19:41:06.753Z,1020.46
2017-12-24T19:45:03.309Z,1020.26
2017-12-24T19:50:02.735Z,1020.35
2017-12-24T19:55:03.263Z,1020.39
2017-12-24T20:00:02.776Z,1020.35
2017-12-24T20:05:03.278Z,1020.37
2017-12-24T20:10:02.751Z,1020.39
2017-12-24T20:15:03.160Z,1020.41
2017-12-24T20:20:03.616Z,1020.44
2017-12-24T20:25:03.116Z,1020.46
2017-12-24T20:30:03.648Z,1020.39
2017-12-24T20:35:03.229Z,1020.26
2017-12-24T20:40:02.665Z,1020.29
2017-12-24T20:45:03.226Z,1020.2
2017-12-24T20:50:02.825Z,1020.19
2017-12-24T20:55:03.229Z,1020.22
2017-12-24T21:00:03.544Z,1020.22
2017-12-24T21:05:03.046Z,1020.25
2017-12-24T21:10:03.589Z,1020.08
2017-12-24T21:15:02.962Z,1020.11
2017-12-24T21:20:03.420Z,1020.12
2017-12-24T21:25:02.994Z,1020.07
2017-12-24T21:30:03.477Z,1020.09
2017-12-24T21:35:02.862Z,1020.26
2017-12-24T21:40:03.512Z,1020.01
2017-12-24T21:45:03.075Z,1019.91
2017-12-24T21:50:03.471Z,1020.02
2017-12-24T21:55:03.209Z,1020
2017-12-24T22:00:03.788Z,1020
2017-12-24T22:05:03.268Z,1020.09
2017-12-24T22:10:02.814Z,1020.06
2017-12-24T22:15:03.325Z,1020.26
2017-12-24T22:20:02.923Z,1019.89
2017-12-24T22:25:03.425Z,1020.08
2017-12-24T22:30:03.273Z,1020.13
2017-12-24T22:35:02.733Z,1019.97
2017-12-24T22:40:03.262Z,1019.87
2017-12-24T22:45:03.641Z,1019.91
2017-12-24T22:50:03.038Z,1019.95
2017-12-24T22:55:03.539Z,1019.86
2017-12-24T23:00:02.963Z,1019.84
2017-12-24T23:05:03.468Z,1019.69
2017-12-24T23:10:02.974Z,1019.71
2017-12-24T23:15:03.489Z,1019.62
2017-12-24T23:20:02.955Z,1019.87
2017-12-24T23:25:03.446Z,1019.81
2017-12-24T23:30:02.925Z,1019.85
2017-12-24T23:35:03.394Z,1019.84
2017-12-24T23:40:02.797Z,1019.74
2017-12-24T23:45:03.232Z,1019.72
2017-12-24T23:50:02.746Z,1019.68
2017-12-24T23:55:03.301Z,1019.56
